createdAt,value
2022-10-20T00:02:16.895Z,7.60
2022-10-20T00:04:43.472Z,8.43
2022-10-20T00:07:10.132Z,8.68
2022-10-20T00:09:36.779Z,8.63
2022-10-20T00:12:03.600Z,7.88
2022-10-20T00:14:30.216Z,8.35
2022-10-20T00:16:56.815Z,7.22
2022-10-20T00:19:23.433Z,7.05
2022-10-20T00:21:49.910Z,7.32
2022-10-20T00:24:16.449Z,8.27
2022-10-20T00:26:42.986Z,8.65
2022-10-20T00:29:09.968Z,8.05
2022-10-20T00:31:36.584Z,8.63
2022-10-20T00:34:03.197Z,8.00
2022-10-20T00:36:29.953Z,8.13
2022-10-20T00:38:59.844Z,9.43
2022-10-20T00:41:27.860Z,9.27
2022-10-20T00:43:58.017Z,8.35
2022-10-20T00:46:40.768Z,8.68
2022-10-20T00:49:22.898Z,8.32
2022-10-20T00:51:51.299Z,9.60
2022-10-20T00:54:23.245Z,9.00
2022-10-20T00:56:51.030Z,9.13
2022-10-20T00:59:22.647Z,8.23
2022-10-20T01:01:49.783Z,8.65
2022-10-20T01:04:17.440Z,8.52
2022-10-20T01:06:44.021Z,8.40
2022-10-20T01:09:11.102Z,8.18
2022-10-20T01:11:59.709Z,8.68
2022-10-20T01:14:51.040Z,9.45
2022-10-20T01:17:39.915Z,9.27
2022-10-20T01:20:44.223Z,9.13
2022-10-20T01:24:15.691Z,8.85
2022-10-20T01:26:55.211Z,8.00
2022-10-20T01:29:38.934Z,9.35
2022-10-20T01:32:15.241Z,9.23
2022-10-20T01:35:11.215Z,9.98
2022-10-20T01:37:49.624Z,8.43
2022-10-20T01:40:31.163Z,9.05
2022-10-20T01:43:01.968Z,10.38
2022-10-20T01:45:32.394Z,9.70
2022-10-20T01:48:02.293Z,9.43
2022-10-20T01:50:29.971Z,9.27
2022-10-20T01:52:58.482Z,9.55
2022-10-20T01:55:25.576Z,10.23
2022-10-20T01:58:23.613Z,9.88
2022-10-20T02:01:39.318Z,8.77
2022-10-20T02:04:08.515Z,9.02
2022-10-20T02:07:08.815Z,8.70
2022-10-20T02:09:47.830Z,9.07
2022-10-20T02:12:24.485Z,8.52
2022-10-20T02:14:52.780Z,8.88
2022-10-20T02:17:20.930Z,8.85
2022-10-20T02:19:51.766Z,7.80
2022-10-20T02:22:20.563Z,8.38
2022-10-20T02:24:47.514Z,9.03
2022-10-20T02:27:22.534Z,8.50
2022-10-20T02:29:55.582Z,8.75
2022-10-20T02:32:24.281Z,8.27
2022-10-20T02:34:51.139Z,8.85
2022-10-20T02:37:17.899Z,8.52
2022-10-20T02:39:44.737Z,9.02
2022-10-20T02:42:12.348Z,8.63
2022-10-20T02:44:38.916Z,7.93
2022-10-20T02:47:05.494Z,10.13
2022-10-20T02:49:32.020Z,10.13
2022-10-20T02:51:58.543Z,9.57
2022-10-20T02:54:25.193Z,9.10
2022-10-20T02:56:51.701Z,8.77
2022-10-20T02:59:18.275Z,9.10
2022-10-20T03:01:45.021Z,8.77
2022-10-20T03:04:11.975Z,9.25
2022-10-20T03:06:39.124Z,9.63
2022-10-20T03:09:05.666Z,8.30
2022-10-20T03:11:32.332Z,10.35
2022-10-20T03:13:59.007Z,9.15
2022-10-20T03:16:25.992Z,10.23
2022-10-20T03:18:52.795Z,8.90
2022-10-20T03:21:19.336Z,8.57
2022-10-20T03:23:45.936Z,9.45
2022-10-20T03:26:13.035Z,10.30
2022-10-20T03:28:40.339Z,9.35
2022-10-20T03:31:08.035Z,9.48
2022-10-20T03:33:34.723Z,9.77
2022-10-20T03:36:01.301Z,9.80
2022-10-20T03:38:27.830Z,9.65
2022-10-20T03:40:54.574Z,9.23
2022-10-20T03:43:21.171Z,9.75
2022-10-20T03:45:47.702Z,9.27
2022-10-20T03:48:14.406Z,9.50
2022-10-20T03:50:42.604Z,9.27
2022-10-20T03:53:13.973Z,9.90
2022-10-20T03:55:40.525Z,10.05
2022-10-20T03:58:07.038Z,9.77
2022-10-20T04:00:33.596Z,10.48
2022-10-20T04:03:00.158Z,9.05
2022-10-20T04:05:26.693Z,11.45
2022-10-20T04:07:53.213Z,9.73
2022-10-20T04:10:19.749Z,8.65
2022-10-20T04:12:46.341Z,9.57
2022-10-20T04:15:12.973Z,11.27
2022-10-20T04:20:07.647Z,10.75
2022-10-20T04:22:34.413Z,10.13
2022-10-20T04:25:02.032Z,9.82
2022-10-20T04:27:28.750Z,9.38
2022-10-20T04:29:55.347Z,8.63
2022-10-20T04:32:21.967Z,9.18
2022-10-20T04:34:48.527Z,9.55
2022-10-20T04:37:15.119Z,10.05
2022-10-20T04:39:41.851Z,9.40
2022-10-20T04:42:08.374Z,9.07
2022-10-20T04:44:34.924Z,9.48
2022-10-20T04:47:01.519Z,9.88
2022-10-20T04:49:28.271Z,9.95
2022-10-20T04:52:00.678Z,10.23
2022-10-20T04:54:27.771Z,9.88
2022-10-20T04:56:54.376Z,9.65
2022-10-20T04:59:20.990Z,8.95
2022-10-20T05:01:47.633Z,9.13
2022-10-20T05:04:20.884Z,9.60
2022-10-20T05:06:48.950Z,22.90
2022-10-20T05:09:16.683Z,12.80
2022-10-20T05:11:43.651Z,11.65
2022-10-20T05:14:10.466Z,9.60
2022-10-20T05:16:37.476Z,9.32
2022-10-20T05:19:04.517Z,9.38
2022-10-20T05:21:32.180Z,9.57
2022-10-20T05:24:01.515Z,9.00
2022-10-20T05:26:32.423Z,8.38
2022-10-20T05:28:59.049Z,8.88
2022-10-20T05:31:25.692Z,8.95
2022-10-20T05:33:55.088Z,9.73
2022-10-20T05:36:24.933Z,8.80
2022-10-20T05:41:22.818Z,9.73
2022-10-20T05:43:54.999Z,9.13
2022-10-20T05:46:21.698Z,10.23
2022-10-20T05:48:48.475Z,9.18
2022-10-20T05:51:19.532Z,9.35
2022-10-20T05:53:48.999Z,9.32
2022-10-20T05:56:19.071Z,10.13
2022-10-20T05:58:47.652Z,9.90
2022-10-20T06:01:24.289Z,10.30
2022-10-20T06:04:01.222Z,10.93
2022-10-20T06:06:29.915Z,11.50
2022-10-20T06:09:00.045Z,8.80
2022-10-20T06:11:27.679Z,10.07
2022-10-20T06:13:56.192Z,9.45
2022-10-20T06:16:25.174Z,8.88
2022-10-20T06:18:52.341Z,9.20
2022-10-20T06:21:27.451Z,10.75
2022-10-20T06:23:54.536Z,9.63
2022-10-20T06:26:25.746Z,9.32
2022-10-20T06:29:02.772Z,9.02
2022-10-20T06:31:39.054Z,9.98
2022-10-20T06:34:07.706Z,9.70
2022-10-20T06:36:36.795Z,8.88
2022-10-20T06:39:05.405Z,9.65
2022-10-20T06:41:32.896Z,8.20
2022-10-20T06:44:00.144Z,8.05
2022-10-20T06:46:32.583Z,8.50
2022-10-20T06:49:04.333Z,6.72
2022-10-20T06:51:31.574Z,7.45
2022-10-20T06:53:59.906Z,7.82
2022-10-20T06:56:28.888Z,7.18
2022-10-20T06:58:56.542Z,8.55
2022-10-20T07:01:26.082Z,8.27
2022-10-20T07:03:56.310Z,8.40
2022-10-20T07:06:25.951Z,9.80
2022-10-20T07:08:54.139Z,9.80
2022-10-20T07:11:22.886Z,9.68
2022-10-20T07:13:49.631Z,9.35
2022-10-20T07:16:20.717Z,9.20
2022-10-20T07:18:48.016Z,9.30
2022-10-20T07:21:17.303Z,10.05
2022-10-20T07:23:44.280Z,9.00
2022-10-20T07:26:19.986Z,9.40
2022-10-20T07:28:55.823Z,15.98
2022-10-20T07:31:27.152Z,10.27
2022-10-20T07:34:06.779Z,8.73
2022-10-20T07:36:42.894Z,9.38
2022-10-20T07:39:12.156Z,8.60
2022-10-20T07:41:39.783Z,12.98
2022-10-20T07:44:07.721Z,8.05
2022-10-20T07:46:34.994Z,8.50
2022-10-20T07:51:48.386Z,8.35
2022-10-20T07:54:15.121Z,8.82
2022-10-20T07:56:44.645Z,9.15
2022-10-20T07:59:13.529Z,9.32
2022-10-20T08:01:40.662Z,8.80
2022-10-20T08:04:07.503Z,8.90
2022-10-20T08:06:34.588Z,9.02
2022-10-20T08:09:01.566Z,10.25
2022-10-20T08:11:28.353Z,9.15
2022-10-20T08:13:55.117Z,9.73
2022-10-20T08:16:27.033Z,8.35
2022-10-20T08:21:50.845Z,9.90
2022-10-20T08:24:17.511Z,9.38
2022-10-20T08:26:44.266Z,9.32
2022-10-20T08:29:12.231Z,9.07
2022-10-20T08:31:39.673Z,9.07
2022-10-20T08:34:07.050Z,10.02
2022-10-20T08:36:33.707Z,9.93
2022-10-20T08:39:03.554Z,8.88
2022-10-20T08:41:55.468Z,10.90
2022-10-20T08:44:30.102Z,9.50
2022-10-20T08:46:59.937Z,10.00
2022-10-20T08:49:30.671Z,9.80
2022-10-20T08:51:58.686Z,9.18
2022-10-20T08:54:25.658Z,9.30
2022-10-20T08:56:52.921Z,9.00
2022-10-20T08:59:34.849Z,9.48
2022-10-20T09:02:02.623Z,10.93
2022-10-20T09:07:35.346Z,10.90
2022-10-20T09:10:21.116Z,12.38
2022-10-20T09:12:49.462Z,11.88
2022-10-20T09:15:19.108Z,13.43
2022-10-20T09:17:53.579Z,13.13
2022-10-20T09:20:24.337Z,12.57
2022-10-20T09:22:50.967Z,10.85
2022-10-20T09:25:24.049Z,12.15
2022-10-20T09:27:51.955Z,11.30
2022-10-20T09:30:22.853Z,10.73
2022-10-20T09:32:50.225Z,11.30
2022-10-20T09:35:29.966Z,11.13
2022-10-20T09:40:27.459Z,10.85
2022-10-20T09:42:57.177Z,11.20
2022-10-20T09:48:16.776Z,10.80
2022-10-20T09:50:48.061Z,12.32
2022-10-20T09:53:21.711Z,11.05
2022-10-20T09:55:50.742Z,11.50
2022-10-20T09:58:31.625Z,12.13
2022-10-20T10:01:02.275Z,11.85
2022-10-20T10:03:37.757Z,10.73
2022-10-20T10:06:27.642Z,10.68
2022-10-20T10:08:55.166Z,11.23
2022-10-20T10:11:26.782Z,10.27
2022-10-20T10:13:53.793Z,10.00
2022-10-20T10:16:24.354Z,10.73
2022-10-20T10:18:58.836Z,9.73
2022-10-20T10:21:25.783Z,10.30
2022-10-20T10:23:52.264Z,10.02
2022-10-20T10:26:33.928Z,10.98
2022-10-20T10:29:00.467Z,10.32
2022-10-20T10:31:27.602Z,9.98
2022-10-20T10:34:17.733Z,10.23
2022-10-20T10:36:44.523Z,10.75
2022-10-20T10:39:14.345Z,11.95
2022-10-20T10:42:00.319Z,10.35
2022-10-20T10:45:07.498Z,10.20
2022-10-20T10:47:48.758Z,11.10
2022-10-20T10:50:26.834Z,10.13
2022-10-20T10:53:24.920Z,9.90
2022-10-20T10:56:10.485Z,10.75
2022-10-20T10:58:43.005Z,10.45
2022-10-20T11:01:25.320Z,9.68
2022-10-20T11:04:19.949Z,9.57
2022-10-20T11:07:08.474Z,9.00
2022-10-20T11:09:56.890Z,8.75
2022-10-20T11:12:29.695Z,10.40
2022-10-20T11:15:06.308Z,8.15
2022-10-20T11:18:10.458Z,8.23
2022-10-20T11:20:57.311Z,7.60
2022-10-20T11:23:29.957Z,7.00
2022-10-20T11:26:12.084Z,7.63
2022-10-20T11:28:45.144Z,7.07
2022-10-20T11:31:22.831Z,6.80
2022-10-20T11:33:56.721Z,6.20
2022-10-20T11:36:26.853Z,7.00
2022-10-20T11:38:55.757Z,7.03
2022-10-20T11:41:35.139Z,8.83
2022-10-20T11:44:14.711Z,7.10
2022-10-20T11:46:56.198Z,7.10
2022-10-20T11:49:23.128Z,6.75
2022-10-20T11:51:52.732Z,6.18
2022-10-20T11:54:35.384Z,7.25
2022-10-20T11:57:34.340Z,7.55
2022-10-20T12:00:30.857Z,6.75
2022-10-20T12:03:33.092Z,6.53
2022-10-20T12:06:15.674Z,8.00
2022-10-20T12:09:20.259Z,9.77
2022-10-20T12:12:05.596Z,7.50
2022-10-20T12:14:38.940Z,6.15
2022-10-20T12:17:13.738Z,6.43
2022-10-20T12:19:40.372Z,6.70
2022-10-20T12:22:29.375Z,5.85
2022-10-20T12:24:55.849Z,6.07
2022-10-20T12:27:24.530Z,6.60
2022-10-20T12:30:01.333Z,6.90
2022-10-20T12:32:27.999Z,6.65
2022-10-20T12:35:00.718Z,6.13
2022-10-20T12:37:30.481Z,5.68
2022-10-20T12:42:30.896Z,5.50
2022-10-20T12:45:05.660Z,6.72
2022-10-20T12:47:35.085Z,6.72
2022-10-20T12:52:33.183Z,7.20
2022-10-20T12:55:06.836Z,8.02
2022-10-20T12:57:41.973Z,9.32
2022-10-20T13:00:29.021Z,7.88
2022-10-20T13:02:57.104Z,7.60
2022-10-20T13:05:26.498Z,7.97
2022-10-20T13:07:53.108Z,9.05
2022-10-20T13:10:37.543Z,6.80
2022-10-20T13:13:04.178Z,6.80
2022-10-20T13:15:43.194Z,7.22
2022-10-20T13:18:12.858Z,7.07
2022-10-20T13:23:12.635Z,7.07
2022-10-20T13:25:44.408Z,6.65
2022-10-20T13:28:13.900Z,7.63
2022-10-20T13:30:52.620Z,7.95
2022-10-20T13:34:02.542Z,8.07
2022-10-20T13:36:23.043Z,8.85
2022-10-20T13:39:08.744Z,7.70
2022-10-20T13:41:48.035Z,8.88
2022-10-20T13:44:39.166Z,9.48
2022-10-20T13:47:37.949Z,9.70
2022-10-20T13:50:16.070Z,7.67
2022-10-20T13:52:46.974Z,8.50
2022-10-20T13:55:27.122Z,8.32
2022-10-20T13:58:08.698Z,8.70
2022-10-20T14:00:38.174Z,8.15
2022-10-20T14:03:16.859Z,8.38
2022-10-20T14:05:44.221Z,9.15
2022-10-20T14:08:14.566Z,8.10
2022-10-20T14:11:04.737Z,7.45
2022-10-20T14:13:35.150Z,8.65
2022-10-20T14:16:05.998Z,9.32
2022-10-20T14:18:38.142Z,7.32
2022-10-20T14:21:06.529Z,7.30
2022-10-20T14:23:44.889Z,8.48
2022-10-20T14:26:19.970Z,12.35
2022-10-20T14:28:51.735Z,9.02
2022-10-20T14:31:24.916Z,10.00
2022-10-20T14:33:52.867Z,9.75
2022-10-20T14:36:22.889Z,8.80
2022-10-20T14:38:52.571Z,9.13
2022-10-20T14:41:34.532Z,9.75
2022-10-20T14:44:10.095Z,10.70
2022-10-20T14:46:50.283Z,8.75
2022-10-20T14:49:25.141Z,9.02
2022-10-20T14:51:59.846Z,9.10
2022-10-20T14:54:28.232Z,9.52
2022-10-20T14:56:58.314Z,10.52
2022-10-20T14:59:38.793Z,9.98
2022-10-20T15:02:12.910Z,8.90
2022-10-20T15:04:40.915Z,7.82
2022-10-20T15:07:17.188Z,9.80
2022-10-20T15:09:47.207Z,9.30
2022-10-20T15:12:17.980Z,9.18
2022-10-20T15:14:47.926Z,8.35
2022-10-20T15:18:11.845Z,7.72
2022-10-20T15:20:40.675Z,6.82
2022-10-20T15:23:14.325Z,6.53
2022-10-20T15:25:46.368Z,7.35
2022-10-20T15:28:31.117Z,6.50
2022-10-20T15:30:59.714Z,7.43
2022-10-20T15:33:26.581Z,11.43
2022-10-20T15:35:53.588Z,14.05
2022-10-20T15:38:21.155Z,10.80
2022-10-20T15:40:48.716Z,8.68
2022-10-20T15:43:21.670Z,8.50
2022-10-20T15:45:54.863Z,12.00
2022-10-20T15:48:26.096Z,14.38
2022-10-20T15:50:54.352Z,9.68
2022-10-20T15:53:21.358Z,9.48
2022-10-20T15:55:48.114Z,9.93
2022-10-20T15:58:14.809Z,40.15
2022-10-20T16:00:41.672Z,11.20
2022-10-20T16:03:15.554Z,11.65
2022-10-20T16:05:42.171Z,7.90
2022-10-20T16:08:09.044Z,8.05
2022-10-20T16:10:36.017Z,8.93
2022-10-20T16:13:03.818Z,9.15
2022-10-20T16:15:31.252Z,9.68
2022-10-20T16:17:58.854Z,10.80
2022-10-20T16:20:25.610Z,13.00
2022-10-20T16:22:52.630Z,13.15
2022-10-20T16:25:19.327Z,12.00
2022-10-20T16:27:46.039Z,10.88
2022-10-20T16:30:12.728Z,11.27
2022-10-20T16:32:39.690Z,13.60
2022-10-20T16:35:06.798Z,11.88
2022-10-20T16:37:34.214Z,12.13
2022-10-20T16:40:01.331Z,12.40
2022-10-20T16:42:30.119Z,13.43
2022-10-20T16:44:57.662Z,14.17
2022-10-20T16:47:26.269Z,14.10
2022-10-20T16:49:53.919Z,13.03
2022-10-20T16:52:20.550Z,11.93
2022-10-20T16:54:47.258Z,12.02
2022-10-20T16:57:14.164Z,12.48
2022-10-20T16:59:42.673Z,12.52
2022-10-20T17:02:12.518Z,11.35
2022-10-20T17:04:39.565Z,12.50
2022-10-20T17:07:08.863Z,13.30
2022-10-20T17:09:35.740Z,13.73
2022-10-20T17:12:02.696Z,12.50
2022-10-20T17:14:32.716Z,12.05
2022-10-20T17:17:00.036Z,11.00
2022-10-20T17:19:27.171Z,13.23
2022-10-20T17:21:56.122Z,13.13
2022-10-20T17:24:24.473Z,12.30
2022-10-20T17:26:51.420Z,11.82
2022-10-20T17:29:22.274Z,11.82
2022-10-20T17:31:52.136Z,13.05
2022-10-20T17:34:18.967Z,12.23
2022-10-20T17:36:45.521Z,13.13
2022-10-20T17:39:15.376Z,12.70
2022-10-20T17:41:42.698Z,12.02
2022-10-20T17:44:10.000Z,12.15
2022-10-20T17:46:36.905Z,14.73
2022-10-20T17:49:03.750Z,13.30
2022-10-20T17:51:33.672Z,14.10
2022-10-20T17:54:02.221Z,13.27
2022-10-20T17:56:31.952Z,13.75
2022-10-20T18:01:34.506Z,12.93
2022-10-20T18:04:08.338Z,12.52
2022-10-20T18:06:35.803Z,12.68
2022-10-20T18:09:10.883Z,12.02
2022-10-20T18:11:38.849Z,12.23
2022-10-20T18:14:21.924Z,14.10
2022-10-20T18:16:48.931Z,11.02
2022-10-20T18:19:17.942Z,12.57
2022-10-20T18:21:45.774Z,12.43
2022-10-20T18:24:14.635Z,17.23
2022-10-20T18:26:41.549Z,14.05
2022-10-20T18:29:10.195Z,11.65
2022-10-20T18:31:39.628Z,12.98
2022-10-20T18:34:08.822Z,11.13
2022-10-20T18:36:39.239Z,10.68
2022-10-20T18:39:09.875Z,12.43
2022-10-20T18:41:39.691Z,11.80
2022-10-20T18:44:10.929Z,10.20
2022-10-20T18:46:39.389Z,12.50
2022-10-20T18:49:08.437Z,13.85
2022-10-20T18:51:36.927Z,10.60
2022-10-20T18:54:05.730Z,12.70
2022-10-20T18:56:32.602Z,11.13
2022-10-20T18:59:07.661Z,13.38
2022-10-20T19:01:37.297Z,9.48
2022-10-20T19:04:05.111Z,9.90
2022-10-20T19:06:36.929Z,9.98
2022-10-20T19:09:07.189Z,10.52
2022-10-20T19:11:36.199Z,9.93
2022-10-20T19:14:03.259Z,9.98
2022-10-20T19:16:33.809Z,10.70
2022-10-20T19:19:02.639Z,9.75
2022-10-20T19:21:30.284Z,10.90
2022-10-20T19:24:00.525Z,9.48
2022-10-20T19:26:32.820Z,10.93
2022-10-20T19:29:02.428Z,11.23
2022-10-20T19:31:47.401Z,11.30
2022-10-20T19:34:20.638Z,12.10
2022-10-20T19:36:47.826Z,11.63
2022-10-20T19:39:18.583Z,11.85
2022-10-20T19:41:45.874Z,11.98
2022-10-20T19:44:15.961Z,12.07
2022-10-20T19:46:44.591Z,11.27
2022-10-20T19:49:12.087Z,11.65
2022-10-20T19:51:39.016Z,11.85
2022-10-20T19:54:06.508Z,10.93
2022-10-20T19:56:33.982Z,10.57
2022-10-20T19:59:01.720Z,11.70
2022-10-20T20:01:29.126Z,9.88
2022-10-20T20:03:55.788Z,10.35
2022-10-20T20:06:23.058Z,12.57
2022-10-20T20:08:54.707Z,11.43
2022-10-20T20:11:27.336Z,10.50
2022-10-20T20:13:57.033Z,10.50
2022-10-20T20:18:50.813Z,10.35
2022-10-20T20:21:18.528Z,12.43
2022-10-20T20:23:58.982Z,10.63
2022-10-20T20:26:27.789Z,11.07
2022-10-20T20:28:55.293Z,9.73
2022-10-20T20:31:22.764Z,13.38
2022-10-20T20:33:49.842Z,12.00
2022-10-20T20:36:16.919Z,13.35
2022-10-20T20:38:43.850Z,14.93
2022-10-20T20:41:16.340Z,20.77
2022-10-20T20:43:46.319Z,17.40
2022-10-20T20:46:19.567Z,16.90
2022-10-20T20:48:46.632Z,17.23
2022-10-20T20:51:16.445Z,15.90
2022-10-20T20:53:43.107Z,17.38
2022-10-20T20:56:12.284Z,16.70
2022-10-20T20:58:40.926Z,25.95
2022-10-20T21:01:13.690Z,17.48
2022-10-20T21:03:41.034Z,18.00
2022-10-20T21:06:17.781Z,21.05
2022-10-20T21:08:47.429Z,20.13
2022-10-20T21:13:46.361Z,18.42
2022-10-20T21:16:25.741Z,21.70
2022-10-20T21:18:55.378Z,17.63
2022-10-20T21:21:27.078Z,16.05
2022-10-20T21:23:54.837Z,17.45
2022-10-20T21:26:22.294Z,17.30
2022-10-20T21:28:49.961Z,18.77
2022-10-20T21:31:19.114Z,16.73
2022-10-20T21:33:49.782Z,18.23
2022-10-20T21:36:18.433Z,18.08
2022-10-20T21:38:45.553Z,17.88
2022-10-20T21:41:21.019Z,16.88
2022-10-20T21:43:50.312Z,17.45
2022-10-20T21:46:23.789Z,16.63
2022-10-20T21:48:52.920Z,16.60
2022-10-20T21:51:23.261Z,17.92
2022-10-20T21:53:57.737Z,18.67
2022-10-20T21:56:25.246Z,20.35
2022-10-20T21:58:52.860Z,16.20
2022-10-20T22:01:22.312Z,18.80
2022-10-20T22:03:49.839Z,14.80
2022-10-20T22:06:18.754Z,16.35
2022-10-20T22:08:47.498Z,16.35
2022-10-20T22:11:17.114Z,15.02
2022-10-20T22:13:44.019Z,12.93
2022-10-20T22:16:14.479Z,12.93
2022-10-20T22:18:41.505Z,11.75
2022-10-20T22:21:13.410Z,13.90
2022-10-20T22:23:41.349Z,12.45
2022-10-20T22:26:08.948Z,16.63
2022-10-20T22:28:36.586Z,15.95
2022-10-20T22:31:04.052Z,14.48
2022-10-20T22:33:30.763Z,13.65
2022-10-20T22:35:57.360Z,12.77
2022-10-20T22:38:24.274Z,13.05
2022-10-20T22:40:50.843Z,13.05
2022-10-20T22:43:17.380Z,12.88
2022-10-20T22:45:43.906Z,13.50
2022-10-20T22:48:10.490Z,14.18
2022-10-20T22:50:37.170Z,14.65
2022-10-20T22:53:03.842Z,17.05
2022-10-20T22:55:30.461Z,16.27
2022-10-20T23:00:28.920Z,18.15
2022-10-20T23:02:56.183Z,17.58
2022-10-20T23:05:23.032Z,16.38
2022-10-20T23:07:49.643Z,16.77
2022-10-20T23:10:16.299Z,15.63
2022-10-20T23:12:43.150Z,16.65
2022-10-20T23:15:10.190Z,18.40
2022-10-20T23:17:37.775Z,17.90
2022-10-20T23:20:04.912Z,18.65
2022-10-20T23:22:31.608Z,19.77
2022-10-20T23:24:58.161Z,18.15
2022-10-20T23:27:24.825Z,18.92
2022-10-20T23:29:51.370Z,20.38
2022-10-20T23:32:17.978Z,20.15
2022-10-20T23:34:44.561Z,17.83
2022-10-20T23:37:11.171Z,19.77
2022-10-20T23:39:37.686Z,19.25
2022-10-20T23:42:07.184Z,18.60
2022-10-20T23:44:34.324Z,18.35
2022-10-20T23:47:00.897Z,19.42
2022-10-20T23:49:27.708Z,19.75
2022-10-20T23:51:54.233Z,19.05
2022-10-20T23:54:21.102Z,19.90
2022-10-20T23:56:47.781Z,17.52
2022-10-20T23:59:14.398Z,19.42
